sensor_id;sensor_type;location;lat;lon;timestamp;P1;durP1;ratioP1;P2;durP2;ratioP2
56321;SDS011;42227;6.376;-10.782;2023-11-22T00:01:48;22.13;;;12.95;;
56321;SDS011;42227;6.376;-10.782;2023-11-22T00:04:17;20.23;;;11.93;;
56321;SDS011;42227;6.376;-10.782;2023-11-22T00:06:45;30.20;;;16.75;;
56321;SDS011;42227;6.376;-10.782;2023-11-22T00:09:14;31.98;;;16.92;;
56321;SDS011;42227;6.376;-10.782;2023-11-22T00:11:43;29.08;;;16.15;;
56321;SDS011;42227;6.376;-10.782;2023-11-22T00:14:11;36.97;;;19.00;;
56321;SDS011;42227;6.376;-10.782;2023-11-22T00:16:39;45.08;;;21.05;;
56321;SDS011;42227;6.376;-10.782;2023-11-22T00:19:11;44.10;;;22.55;;
56321;SDS011;42227;6.376;-10.782;2023-11-22T00:21:39;40.78;;;17.67;;
56321;SDS011;42227;6.376;-10.782;2023-11-22T00:24:08;21.63;;;12.43;;
56321;SDS011;42227;6.376;-10.782;2023-11-22T00:26:36;27.23;;;11.90;;
56321;SDS011;42227;6.376;-10.782;2023-11-22T00:29:05;20.60;;;13.57;;
56321;SDS011;42227;6.376;-10.782;2023-11-22T00:31:33;32.67;;;13.13;;
56321;SDS011;42227;6.376;-10.782;2023-11-22T00:34:02;33.33;;;16.65;;
56321;SDS011;42227;6.376;-10.782;2023-11-22T00:36:30;31.67;;;14.32;;
56321;SDS011;42227;6.376;-10.782;2023-11-22T00:38:58;27.63;;;12.10;;
56321;SDS011;42227;6.376;-10.782;2023-11-22T00:41:30;22.02;;;11.60;;
56321;SDS011;42227;6.376;-10.782;2023-11-22T00:43:59;17.83;;;11.90;;
56321;SDS011;42227;6.376;-10.782;2023-11-22T00:46:28;34.55;;;16.02;;
56321;SDS011;42227;6.376;-10.782;2023-11-22T00:48:56;30.08;;;14.90;;
56321;SDS011;42227;6.376;-10.782;2023-11-22T00:51:25;24.52;;;12.90;;
56321;SDS011;42227;6.376;-10.782;2023-11-22T00:53:53;22.50;;;10.88;;
56321;SDS011;42227;6.376;-10.782;2023-11-22T00:56:21;28.85;;;11.40;;
56321;SDS011;42227;6.376;-10.782;2023-11-22T00:58:50;21.05;;;9.52;;
56321;SDS011;42227;6.376;-10.782;2023-11-22T01:01:19;27.08;;;10.63;;
56321;SDS011;42227;6.376;-10.782;2023-11-22T01:03:48;23.02;;;9.55;;
56321;SDS011;42227;6.376;-10.782;2023-11-22T01:06:16;28.60;;;9.38;;
56321;SDS011;42227;6.376;-10.782;2023-11-22T01:08:45;27.95;;;10.80;;
56321;SDS011;42227;6.376;-10.782;2023-11-22T01:11:13;19.80;;;11.85;;
56321;SDS011;42227;6.376;-10.782;2023-11-22T01:13:42;28.92;;;11.23;;
56321;SDS011;42227;6.376;-10.782;2023-11-22T01:16:10;20.10;;;10.68;;
56321;SDS011;42227;6.376;-10.782;2023-11-22T01:18:39;16.58;;;10.73;;
56321;SDS011;42227;6.376;-10.782;2023-11-22T01:21:11;23.88;;;11.88;;
56321;SDS011;42227;6.376;-10.782;2023-11-22T01:23:39;21.35;;;10.25;;
56321;SDS011;42227;6.376;-10.782;2023-11-22T01:26:08;23.58;;;9.68;;
56321;SDS011;42227;6.376;-10.782;2023-11-22T01:28:36;33.40;;;9.85;;
56321;SDS011;42227;6.376;-10.782;2023-11-22T01:31:05;21.80;;;9.48;;
56321;SDS011;42227;6.376;-10.782;2023-11-22T01:33:33;22.70;;;9.25;;
56321;SDS011;42227;6.376;-10.782;2023-11-22T01:36:02;25.90;;;9.80;;
56321;SDS011;42227;6.376;-10.782;2023-11-22T01:38:30;18.23;;;10.13;;
56321;SDS011;42227;6.376;-10.782;2023-11-22T01:40:59;19.90;;;11.90;;
56321;SDS011;42227;6.376;-10.782;2023-11-22T01:43:27;22.20;;;11.77;;
56321;SDS011;42227;6.376;-10.782;2023-11-22T01:45:56;24.20;;;11.57;;
56321;SDS011;42227;6.376;-10.782;2023-11-22T01:48:24;15.50;;;8.98;;
56321;SDS011;42227;6.376;-10.782;2023-11-22T01:50:53;25.10;;;10.45;;
56321;SDS011;42227;6.376;-10.782;2023-11-22T01:53:22;21.60;;;11.10;;
56321;SDS011;42227;6.376;-10.782;2023-11-22T01:55:52;27.00;;;11.98;;
56321;SDS011;42227;6.376;-10.782;2023-11-22T01:58:20;21.55;;;11.27;;
56321;SDS011;42227;6.376;-10.782;2023-11-22T02:00:50;33.22;;;12.00;;
56321;SDS011;42227;6.376;-10.782;2023-11-22T02:03:19;36.80;;;12.82;;
56321;SDS011;42227;6.376;-10.782;2023-11-22T02:05:47;32.92;;;11.02;;
56321;SDS011;42227;6.376;-10.782;2023-11-22T02:08:18;46.47;;;12.20;;
56321;SDS011;42227;6.376;-10.782;2023-11-22T02:10:56;30.67;;;13.15;;
56321;SDS011;42227;6.376;-10.782;2023-11-22T02:13:28;25.58;;;11.30;;
56321;SDS011;42227;6.376;-10.782;2023-11-22T02:15:57;41.05;;;11.60;;
56321;SDS011;42227;6.376;-10.782;2023-11-22T02:18:27;37.92;;;10.43;;
56321;SDS011;42227;6.376;-10.782;2023-11-22T02:20:56;26.83;;;10.70;;
56321;SDS011;42227;6.376;-10.782;2023-11-22T02:23:24;31.80;;;12.43;;
56321;SDS011;42227;6.376;-10.782;2023-11-22T02:25:53;28.70;;;12.27;;
56321;SDS011;42227;6.376;-10.782;2023-11-22T02:28:21;27.58;;;11.88;;
56321;SDS011;42227;6.376;-10.782;2023-11-22T02:30:50;18.20;;;9.52;;
56321;SDS011;42227;6.376;-10.782;2023-11-22T02:33:18;29.00;;;9.68;;
56321;SDS011;42227;6.376;-10.782;2023-11-22T02:35:47;23.75;;;9.70;;
56321;SDS011;42227;6.376;-10.782;2023-11-22T02:38:16;21.75;;;9.82;;
56321;SDS011;42227;6.376;-10.782;2023-11-22T02:40:44;30.73;;;10.45;;
56321;SDS011;42227;6.376;-10.782;2023-11-22T02:43:12;26.98;;;11.07;;
56321;SDS011;42227;6.376;-10.782;2023-11-22T02:45:41;26.20;;;13.48;;
56321;SDS011;42227;6.376;-10.782;2023-11-22T02:48:11;24.35;;;14.68;;
56321;SDS011;42227;6.376;-10.782;2023-11-22T02:50:40;29.25;;;16.65;;
56321;SDS011;42227;6.376;-10.782;2023-11-22T02:53:08;30.42;;;14.98;;
56321;SDS011;42227;6.376;-10.782;2023-11-22T02:55:37;28.67;;;16.50;;
56321;SDS011;42227;6.376;-10.782;2023-11-22T02:58:05;32.00;;;17.55;;
56321;SDS011;42227;6.376;-10.782;2023-11-22T03:00:34;43.30;;;19.42;;
56321;SDS011;42227;6.376;-10.782;2023-11-22T03:03:02;43.70;;;21.52;;
56321;SDS011;42227;6.376;-10.782;2023-11-22T03:05:31;25.20;;;19.08;;
56321;SDS011;42227;6.376;-10.782;2023-11-22T03:07:59;39.88;;;20.30;;
56321;SDS011;42227;6.376;-10.782;2023-11-22T03:10:33;39.25;;;18.27;;
56321;SDS011;42227;6.376;-10.782;2023-11-22T03:13:01;34.22;;;18.65;;
56321;SDS011;42227;6.376;-10.782;2023-11-22T03:15:30;41.58;;;20.58;;
56321;SDS011;42227;6.376;-10.782;2023-11-22T03:17:58;48.08;;;21.45;;
56321;SDS011;42227;6.376;-10.782;2023-11-22T03:20:27;35.50;;;20.10;;
56321;SDS011;42227;6.376;-10.782;2023-11-22T03:22:56;43.03;;;20.00;;
56321;SDS011;42227;6.376;-10.782;2023-11-22T03:25:24;37.65;;;18.60;;
56321;SDS011;42227;6.376;-10.782;2023-11-22T03:27:53;26.48;;;20.20;;
56321;SDS011;42227;6.376;-10.782;2023-11-22T03:30:21;48.85;;;21.33;;
56321;SDS011;42227;6.376;-10.782;2023-11-22T03:32:49;41.65;;;22.20;;
56321;SDS011;42227;6.376;-10.782;2023-11-22T03:35:18;35.58;;;22.20;;
56321;SDS011;42227;6.376;-10.782;2023-11-22T03:37:46;48.83;;;21.40;;
56321;SDS011;42227;6.376;-10.782;2023-11-22T03:40:16;40.58;;;21.20;;
56321;SDS011;42227;6.376;-10.782;2023-11-22T03:42:44;41.42;;;19.88;;
56321;SDS011;42227;6.376;-10.782;2023-11-22T03:45:13;30.13;;;19.40;;
56321;SDS011;42227;6.376;-10.782;2023-11-22T03:47:42;36.75;;;21.27;;
56321;SDS011;42227;6.376;-10.782;2023-11-22T03:50:11;33.70;;;18.40;;
56321;SDS011;42227;6.376;-10.782;2023-11-22T03:52:39;42.63;;;21.58;;
56321;SDS011;42227;6.376;-10.782;2023-11-22T03:55:08;37.17;;;22.05;;
56321;SDS011;42227;6.376;-10.782;2023-11-22T03:57:37;34.78;;;22.58;;
56321;SDS011;42227;6.376;-10.782;2023-11-22T04:00:05;32.42;;;20.65;;
56321;SDS011;42227;6.376;-10.782;2023-11-22T04:02:38;34.88;;;21.13;;
56321;SDS011;42227;6.376;-10.782;2023-11-22T04:05:06;31.50;;;20.23;;
56321;SDS011;42227;6.376;-10.782;2023-11-22T04:07:35;36.05;;;20.73;;
56321;SDS011;42227;6.376;-10.782;2023-11-22T04:10:04;39.25;;;20.38;;
56321;SDS011;42227;6.376;-10.782;2023-11-22T04:12:32;38.28;;;20.23;;
56321;SDS011;42227;6.376;-10.782;2023-11-22T04:15:03;45.20;;;20.25;;
56321;SDS011;42227;6.376;-10.782;2023-11-22T04:17:33;42.22;;;24.00;;
56321;SDS011;42227;6.376;-10.782;2023-11-22T04:20:02;37.55;;;21.05;;
56321;SDS011;42227;6.376;-10.782;2023-11-22T04:22:32;41.75;;;23.30;;
56321;SDS011;42227;6.376;-10.782;2023-11-22T04:25:01;43.78;;;22.38;;
56321;SDS011;42227;6.376;-10.782;2023-11-22T04:27:30;45.53;;;24.75;;
56321;SDS011;42227;6.376;-10.782;2023-11-22T04:29:58;37.92;;;21.60;;
56321;SDS011;42227;6.376;-10.782;2023-11-22T04:32:27;42.20;;;22.30;;
56321;SDS011;42227;6.376;-10.782;2023-11-22T04:34:55;38.20;;;24.20;;
56321;SDS011;42227;6.376;-10.782;2023-11-22T04:37:23;30.00;;;21.70;;
56321;SDS011;42227;6.376;-10.782;2023-11-22T04:39:52;30.17;;;17.52;;
56321;SDS011;42227;6.376;-10.782;2023-11-22T04:42:20;31.63;;;20.05;;
56321;SDS011;42227;6.376;-10.782;2023-11-22T04:44:50;39.90;;;16.60;;
56321;SDS011;42227;6.376;-10.782;2023-11-22T04:47:18;33.65;;;16.55;;
56321;SDS011;42227;6.376;-10.782;2023-11-22T04:49:46;34.08;;;19.80;;
56321;SDS011;42227;6.376;-10.782;2023-11-22T04:52:15;38.92;;;21.42;;
56321;SDS011;42227;6.376;-10.782;2023-11-22T04:54:44;33.22;;;18.15;;
56321;SDS011;42227;6.376;-10.782;2023-11-22T04:57:12;25.52;;;18.33;;
56321;SDS011;42227;6.376;-10.782;2023-11-22T04:59:41;40.42;;;17.88;;
56321;SDS011;42227;6.376;-10.782;2023-11-22T05:02:09;26.23;;;17.92;;
56321;SDS011;42227;6.376;-10.782;2023-11-22T05:04:38;22.38;;;15.80;;
56321;SDS011;42227;6.376;-10.782;2023-11-22T05:07:06;25.60;;;16.52;;
56321;SDS011;42227;6.376;-10.782;2023-11-22T05:09:35;29.02;;;17.60;;
56321;SDS011;42227;6.376;-10.782;2023-11-22T05:12:06;28.23;;;19.50;;
56321;SDS011;42227;6.376;-10.782;2023-11-22T05:14:35;32.22;;;17.65;;
56321;SDS011;42227;6.376;-10.782;2023-11-22T05:17:04;40.28;;;16.80;;
56321;SDS011;42227;6.376;-10.782;2023-11-22T05:19:33;30.83;;;19.42;;
56321;SDS011;42227;6.376;-10.782;2023-11-22T05:22:01;29.48;;;18.33;;
56321;SDS011;42227;6.376;-10.782;2023-11-22T05:24:29;37.38;;;19.42;;
56321;SDS011;42227;6.376;-10.782;2023-11-22T05:26:58;42.25;;;21.10;;
56321;SDS011;42227;6.376;-10.782;2023-11-22T05:29:26;47.17;;;21.05;;
56321;SDS011;42227;6.376;-10.782;2023-11-22T05:32:06;38.20;;;20.85;;
56321;SDS011;42227;6.376;-10.782;2023-11-22T05:34:34;47.70;;;21.30;;
56321;SDS011;42227;6.376;-10.782;2023-11-22T05:37:03;37.30;;;21.00;;
56321;SDS011;42227;6.376;-10.782;2023-11-22T05:39:31;36.13;;;19.83;;
56321;SDS011;42227;6.376;-10.782;2023-11-22T05:42:01;32.42;;;21.02;;
56321;SDS011;42227;6.376;-10.782;2023-11-22T05:44:29;42.90;;;21.50;;
56321;SDS011;42227;6.376;-10.782;2023-11-22T05:46:58;35.97;;;21.02;;
56321;SDS011;42227;6.376;-10.782;2023-11-22T05:49:26;32.00;;;20.42;;
56321;SDS011;42227;6.376;-10.782;2023-11-22T05:51:55;28.65;;;18.00;;
56321;SDS011;42227;6.376;-10.782;2023-11-22T05:54:23;50.55;;;22.48;;
56321;SDS011;42227;6.376;-10.782;2023-11-22T05:56:51;36.25;;;23.48;;
56321;SDS011;42227;6.376;-10.782;2023-11-22T05:59:20;30.42;;;19.90;;
56321;SDS011;42227;6.376;-10.782;2023-11-22T06:01:48;32.95;;;19.80;;
56321;SDS011;42227;6.376;-10.782;2023-11-22T06:04:17;50.13;;;22.17;;
56321;SDS011;42227;6.376;-10.782;2023-11-22T06:06:45;42.00;;;21.38;;
56321;SDS011;42227;6.376;-10.782;2023-11-22T06:09:14;34.53;;;20.65;;
56321;SDS011;42227;6.376;-10.782;2023-11-22T06:11:42;28.63;;;19.38;;
56321;SDS011;42227;6.376;-10.782;2023-11-22T06:14:11;37.47;;;21.35;;
56321;SDS011;42227;6.376;-10.782;2023-11-22T06:16:39;37.38;;;19.92;;
56321;SDS011;42227;6.376;-10.782;2023-11-22T06:19:08;39.45;;;20.48;;
56321;SDS011;42227;6.376;-10.782;2023-11-22T06:21:36;37.63;;;19.05;;
56321;SDS011;42227;6.376;-10.782;2023-11-22T06:24:05;41.25;;;20.55;;
56321;SDS011;42227;6.376;-10.782;2023-11-22T06:26:34;32.05;;;20.52;;
56321;SDS011;42227;6.376;-10.782;2023-11-22T06:29:02;46.10;;;24.20;;
56321;SDS011;42227;6.376;-10.782;2023-11-22T06:31:31;43.53;;;23.33;;
56321;SDS011;42227;6.376;-10.782;2023-11-22T06:33:59;36.05;;;22.70;;
56321;SDS011;42227;6.376;-10.782;2023-11-22T06:36:28;38.20;;;25.08;;
56321;SDS011;42227;6.376;-10.782;2023-11-22T06:38:56;60.22;;;24.85;;
56321;SDS011;42227;6.376;-10.782;2023-11-22T06:41:24;47.97;;;24.60;;
56321;SDS011;42227;6.376;-10.782;2023-11-22T06:43:53;42.50;;;29.80;;
56321;SDS011;42227;6.376;-10.782;2023-11-22T06:46:21;51.03;;;27.05;;
56321;SDS011;42227;6.376;-10.782;2023-11-22T06:48:50;42.85;;;22.67;;
56321;SDS011;42227;6.376;-10.782;2023-11-22T06:51:18;51.80;;;26.48;;
56321;SDS011;42227;6.376;-10.782;2023-11-22T06:53:47;37.90;;;23.58;;
56321;SDS011;42227;6.376;-10.782;2023-11-22T06:56:17;39.55;;;23.10;;
56321;SDS011;42227;6.376;-10.782;2023-11-22T06:58:45;40.45;;;24.63;;
56321;SDS011;42227;6.376;-10.782;2023-11-22T07:01:14;33.55;;;22.13;;
56321;SDS011;42227;6.376;-10.782;2023-11-22T07:03:43;47.13;;;23.75;;
56321;SDS011;42227;6.376;-10.782;2023-11-22T07:06:12;30.88;;;18.17;;
56321;SDS011;42227;6.376;-10.782;2023-11-22T07:08:41;38.25;;;21.38;;
56321;SDS011;42227;6.376;-10.782;2023-11-22T07:11:12;36.30;;;23.80;;
56321;SDS011;42227;6.376;-10.782;2023-11-22T07:13:40;41.85;;;22.45;;
56321;SDS011;42227;6.376;-10.782;2023-11-22T07:16:09;29.33;;;20.17;;
56321;SDS011;42227;6.376;-10.782;2023-11-22T07:18:37;30.02;;;20.38;;
56321;SDS011;42227;6.376;-10.782;2023-11-22T07:21:06;40.33;;;20.10;;
56321;SDS011;42227;6.376;-10.782;2023-11-22T07:23:34;33.75;;;18.88;;
56321;SDS011;42227;6.376;-10.782;2023-11-22T07:26:03;32.38;;;19.23;;
56321;SDS011;42227;6.376;-10.782;2023-11-22T07:28:31;30.52;;;21.50;;
56321;SDS011;42227;6.376;-10.782;2023-11-22T07:31:00;41.88;;;21.70;;
56321;SDS011;42227;6.376;-10.782;2023-11-22T07:33:28;50.28;;;24.15;;
56321;SDS011;42227;6.376;-10.782;2023-11-22T07:35:57;43.55;;;23.05;;
56321;SDS011;42227;6.376;-10.782;2023-11-22T07:38:25;44.63;;;26.63;;
56321;SDS011;42227;6.376;-10.782;2023-11-22T07:40:54;38.58;;;23.98;;
56321;SDS011;42227;6.376;-10.782;2023-11-22T07:43:22;28.63;;;19.05;;
56321;SDS011;42227;6.376;-10.782;2023-11-22T07:45:51;24.23;;;18.52;;
56321;SDS011;42227;6.376;-10.782;2023-11-22T07:48:20;31.15;;;16.15;;
56321;SDS011;42227;6.376;-10.782;2023-11-22T07:50:48;32.40;;;15.98;;
56321;SDS011;42227;6.376;-10.782;2023-11-22T07:53:17;29.38;;;16.30;;
56321;SDS011;42227;6.376;-10.782;2023-11-22T07:55:45;28.95;;;16.70;;
56321;SDS011;42227;6.376;-10.782;2023-11-22T07:58:14;24.60;;;15.07;;
56321;SDS011;42227;6.376;-10.782;2023-11-22T08:00:42;46.20;;;18.60;;
56321;SDS011;42227;6.376;-10.782;2023-11-22T08:03:11;36.72;;;16.65;;
56321;SDS011;42227;6.376;-10.782;2023-11-22T08:05:39;24.30;;;12.60;;
56321;SDS011;42227;6.376;-10.782;2023-11-22T08:08:08;34.58;;;13.60;;
56321;SDS011;42227;6.376;-10.782;2023-11-22T08:10:36;21.75;;;14.32;;
56321;SDS011;42227;6.376;-10.782;2023-11-22T08:13:05;40.10;;;14.32;;
56321;SDS011;42227;6.376;-10.782;2023-11-22T08:15:33;21.35;;;13.30;;
56321;SDS011;42227;6.376;-10.782;2023-11-22T08:18:01;24.30;;;13.68;;
56321;SDS011;42227;6.376;-10.782;2023-11-22T08:20:30;23.08;;;15.25;;
56321;SDS011;42227;6.376;-10.782;2023-11-22T08:22:59;35.58;;;14.40;;
56321;SDS011;42227;6.376;-10.782;2023-11-22T08:25:27;29.25;;;13.75;;
56321;SDS011;42227;6.376;-10.782;2023-11-22T08:27:56;28.27;;;13.65;;
56321;SDS011;42227;6.376;-10.782;2023-11-22T08:32:59;26.35;;;14.80;;
56321;SDS011;42227;6.376;-10.782;2023-11-22T08:35:28;30.38;;;14.73;;
56321;SDS011;42227;6.376;-10.782;2023-11-22T08:37:58;24.60;;;15.80;;
56321;SDS011;42227;6.376;-10.782;2023-11-22T08:40:31;35.78;;;16.65;;
56321;SDS011;42227;6.376;-10.782;2023-11-22T08:43:00;24.90;;;14.55;;
56321;SDS011;42227;6.376;-10.782;2023-11-22T08:45:31;23.85;;;14.05;;
56321;SDS011;42227;6.376;-10.782;2023-11-22T08:48:03;28.13;;;12.73;;
56321;SDS011;42227;6.376;-10.782;2023-11-22T08:50:37;31.80;;;15.20;;
56321;SDS011;42227;6.376;-10.782;2023-11-22T08:53:07;24.23;;;13.00;;
56321;SDS011;42227;6.376;-10.782;2023-11-22T08:55:36;24.35;;;13.23;;
56321;SDS011;42227;6.376;-10.782;2023-11-22T08:58:09;38.15;;;13.73;;
56321;SDS011;42227;6.376;-10.782;2023-11-22T09:00:38;31.35;;;12.68;;
56321;SDS011;42227;6.376;-10.782;2023-11-22T09:03:07;22.00;;;11.32;;
56321;SDS011;42227;6.376;-10.782;2023-11-22T09:05:37;30.38;;;11.50;;
56321;SDS011;42227;6.376;-10.782;2023-11-22T09:08:05;21.63;;;9.95;;
56321;SDS011;42227;6.376;-10.782;2023-11-22T09:10:48;21.02;;;9.80;;
56321;SDS011;42227;6.376;-10.782;2023-11-22T09:13:17;24.38;;;9.95;;
56321;SDS011;42227;6.376;-10.782;2023-11-22T09:15:53;18.92;;;9.73;;
56321;SDS011;42227;6.376;-10.782;2023-11-22T09:18:22;18.88;;;10.52;;
56321;SDS011;42227;6.376;-10.782;2023-11-22T09:20:51;39.20;;;12.80;;
56321;SDS011;42227;6.376;-10.782;2023-11-22T09:23:20;19.48;;;11.02;;
56321;SDS011;42227;6.376;-10.782;2023-11-22T09:25:49;29.45;;;11.65;;
56321;SDS011;42227;6.376;-10.782;2023-11-22T09:28:19;30.73;;;10.07;;
56321;SDS011;42227;6.376;-10.782;2023-11-22T09:30:49;37.40;;;10.47;;
56321;SDS011;42227;6.376;-10.782;2023-11-22T09:33:17;37.40;;;13.00;;
56321;SDS011;42227;6.376;-10.782;2023-11-22T09:35:46;30.55;;;11.23;;
56321;SDS011;42227;6.376;-10.782;2023-11-22T09:38:15;26.73;;;12.65;;
56321;SDS011;42227;6.376;-10.782;2023-11-22T09:40:44;39.67;;;11.43;;
56321;SDS011;42227;6.376;-10.782;2023-11-22T09:43:18;22.45;;;10.85;;
56321;SDS011;42227;6.376;-10.782;2023-11-22T09:45:47;39.78;;;15.02;;
56321;SDS011;42227;6.376;-10.782;2023-11-22T09:48:23;23.75;;;11.27;;
56321;SDS011;42227;6.376;-10.782;2023-11-22T09:51:08;22.88;;;11.05;;
56321;SDS011;42227;6.376;-10.782;2023-11-22T09:53:58;22.27;;;12.02;;
56321;SDS011;42227;6.376;-10.782;2023-11-22T09:56:27;38.70;;;14.05;;
56321;SDS011;42227;6.376;-10.782;2023-11-22T09:58:57;31.58;;;10.30;;
56321;SDS011;42227;6.376;-10.782;2023-11-22T10:01:28;27.55;;;10.93;;
56321;SDS011;42227;6.376;-10.782;2023-11-22T10:03:59;35.05;;;9.25;;
56321;SDS011;42227;6.376;-10.782;2023-11-22T10:06:28;21.70;;;9.93;;
56321;SDS011;42227;6.376;-10.782;2023-11-22T10:08:57;21.23;;;9.07;;
56321;SDS011;42227;6.376;-10.782;2023-11-22T10:11:31;19.85;;;9.50;;
56321;SDS011;42227;6.376;-10.782;2023-11-22T10:14:00;31.75;;;11.20;;
56321;SDS011;42227;6.376;-10.782;2023-11-22T10:16:28;22.05;;;9.55;;
56321;SDS011;42227;6.376;-10.782;2023-11-22T10:18:57;19.77;;;9.18;;
56321;SDS011;42227;6.376;-10.782;2023-11-22T10:21:28;19.52;;;9.70;;
56321;SDS011;42227;6.376;-10.782;2023-11-22T10:24:02;17.10;;;8.35;;
56321;SDS011;42227;6.376;-10.782;2023-11-22T10:26:31;22.45;;;9.02;;
56321;SDS011;42227;6.376;-10.782;2023-11-22T10:29:01;20.75;;;8.57;;
56321;SDS011;42227;6.376;-10.782;2023-11-22T10:31:29;18.88;;;8.73;;
56321;SDS011;42227;6.376;-10.782;2023-11-22T10:33:58;39.90;;;9.30;;
56321;SDS011;42227;6.376;-10.782;2023-11-22T10:36:26;20.75;;;9.70;;
56321;SDS011;42227;6.376;-10.782;2023-11-22T10:38:56;24.30;;;11.02;;
56321;SDS011;42227;6.376;-10.782;2023-11-22T10:41:25;16.17;;;9.85;;
56321;SDS011;42227;6.376;-10.782;2023-11-22T10:43:53;25.67;;;11.00;;
56321;SDS011;42227;6.376;-10.782;2023-11-22T10:46:24;16.95;;;8.88;;
56321;SDS011;42227;6.376;-10.782;2023-11-22T10:48:56;28.67;;;9.15;;
56321;SDS011;42227;6.376;-10.782;2023-11-22T10:51:26;20.92;;;9.93;;
56321;SDS011;42227;6.376;-10.782;2023-11-22T10:54:00;22.65;;;8.35;;
56321;SDS011;42227;6.376;-10.782;2023-11-22T10:56:29;26.20;;;9.70;;
56321;SDS011;42227;6.376;-10.782;2023-11-22T10:59:10;18.35;;;8.68;;
56321;SDS011;42227;6.376;-10.782;2023-11-22T11:01:45;23.23;;;9.07;;
56321;SDS011;42227;6.376;-10.782;2023-11-22T11:04:18;24.63;;;8.98;;
56321;SDS011;42227;6.376;-10.782;2023-11-22T11:06:52;30.10;;;11.43;;
56321;SDS011;42227;6.376;-10.782;2023-11-22T11:09:22;27.95;;;10.65;;
56321;SDS011;42227;6.376;-10.782;2023-11-22T11:11:51;42.70;;;11.43;;
56321;SDS011;42227;6.376;-10.782;2023-11-22T11:14:20;31.48;;;13.32;;
56321;SDS011;42227;6.376;-10.782;2023-11-22T11:16:49;21.85;;;11.93;;
56321;SDS011;42227;6.376;-10.782;2023-11-22T11:19:18;16.63;;;9.32;;
56321;SDS011;42227;6.376;-10.782;2023-11-22T11:21:48;29.80;;;8.52;;
56321;SDS011;42227;6.376;-10.782;2023-11-22T11:24:16;24.95;;;12.07;;
56321;SDS011;42227;6.376;-10.782;2023-11-22T11:26:48;25.00;;;11.35;;
56321;SDS011;42227;6.376;-10.782;2023-11-22T11:29:33;30.60;;;8.57;;
56321;SDS011;42227;6.376;-10.782;2023-11-22T11:32:03;23.73;;;10.55;;
56321;SDS011;42227;6.376;-10.782;2023-11-22T11:34:32;17.67;;;8.20;;
56321;SDS011;42227;6.376;-10.782;2023-11-22T11:37:05;21.30;;;9.43;;
56321;SDS011;42227;6.376;-10.782;2023-11-22T11:39:33;31.20;;;10.90;;
56321;SDS011;42227;6.376;-10.782;2023-11-22T11:42:09;19.27;;;7.93;;
56321;SDS011;42227;6.376;-10.782;2023-11-22T11:47:27;21.80;;;9.07;;
56321;SDS011;42227;6.376;-10.782;2023-11-22T11:49:56;31.17;;;8.52;;
56321;SDS011;42227;6.376;-10.782;2023-11-22T11:52:24;25.20;;;8.40;;
56321;SDS011;42227;6.376;-10.782;2023-11-22T11:54:53;16.85;;;7.47;;
56321;SDS011;42227;6.376;-10.782;2023-11-22T11:57:22;15.95;;;8.75;;
56321;SDS011;42227;6.376;-10.782;2023-11-22T11:59:51;19.52;;;9.02;;
56321;SDS011;42227;6.376;-10.782;2023-11-22T12:02:21;29.05;;;9.73;;
56321;SDS011;42227;6.376;-10.782;2023-11-22T12:04:49;22.48;;;7.45;;
56321;SDS011;42227;6.376;-10.782;2023-11-22T12:07:18;23.70;;;9.50;;
56321;SDS011;42227;6.376;-10.782;2023-11-22T12:09:46;23.70;;;10.00;;
56321;SDS011;42227;6.376;-10.782;2023-11-22T12:12:15;23.92;;;8.70;;
56321;SDS011;42227;6.376;-10.782;2023-11-22T12:14:43;21.48;;;9.63;;
56321;SDS011;42227;6.376;-10.782;2023-11-22T12:17:12;23.92;;;8.80;;
56321;SDS011;42227;6.376;-10.782;2023-11-22T12:19:41;25.45;;;10.75;;
56321;SDS011;42227;6.376;-10.782;2023-11-22T12:22:10;26.08;;;9.32;;
56321;SDS011;42227;6.376;-10.782;2023-11-22T12:24:39;14.32;;;8.15;;
56321;SDS011;42227;6.376;-10.782;2023-11-22T12:27:09;20.05;;;8.65;;
56321;SDS011;42227;6.376;-10.782;2023-11-22T12:29:39;29.48;;;9.75;;
56321;SDS011;42227;6.376;-10.782;2023-11-22T12:32:07;25.63;;;9.55;;
56321;SDS011;42227;6.376;-10.782;2023-11-22T12:34:36;19.73;;;8.25;;
56321;SDS011;42227;6.376;-10.782;2023-11-22T12:37:05;28.23;;;9.98;;
56321;SDS011;42227;6.376;-10.782;2023-11-22T12:39:35;22.10;;;10.60;;
56321;SDS011;42227;6.376;-10.782;2023-11-22T12:42:04;32.75;;;11.15;;
56321;SDS011;42227;6.376;-10.782;2023-11-22T12:44:47;23.83;;;9.07;;
56321;SDS011;42227;6.376;-10.782;2023-11-22T12:47:30;18.83;;;8.55;;
56321;SDS011;42227;6.376;-10.782;2023-11-22T12:49:59;28.65;;;8.07;;
56321;SDS011;42227;6.376;-10.782;2023-11-22T12:52:28;21.65;;;9.00;;
56321;SDS011;42227;6.376;-10.782;2023-11-22T12:54:56;25.40;;;9.73;;
56321;SDS011;42227;6.376;-10.782;2023-11-22T12:57:24;30.73;;;10.48;;
56321;SDS011;42227;6.376;-10.782;2023-11-22T12:59:53;20.08;;;8.43;;
56321;SDS011;42227;6.376;-10.782;2023-11-22T13:02:21;25.00;;;9.95;;
56321;SDS011;42227;6.376;-10.782;2023-11-22T13:04:50;16.13;;;8.70;;
56321;SDS011;42227;6.376;-10.782;2023-11-22T13:07:19;28.17;;;13.50;;
56321;SDS011;42227;6.376;-10.782;2023-11-22T13:09:47;15.18;;;7.68;;
56321;SDS011;42227;6.376;-10.782;2023-11-22T13:12:16;23.80;;;9.65;;
56321;SDS011;42227;6.376;-10.782;2023-11-22T13:14:44;32.17;;;10.13;;
56321;SDS011;42227;6.376;-10.782;2023-11-22T13:17:12;48.42;;;25.65;;
56321;SDS011;42227;6.376;-10.782;2023-11-22T13:19:41;22.15;;;12.02;;
56321;SDS011;42227;6.376;-10.782;2023-11-22T13:22:09;35.63;;;8.70;;
56321;SDS011;42227;6.376;-10.782;2023-11-22T13:24:38;25.13;;;9.35;;
56321;SDS011;42227;6.376;-10.782;2023-11-22T13:27:08;17.85;;;11.07;;
56321;SDS011;42227;6.376;-10.782;2023-11-22T13:29:37;38.88;;;20.15;;
56321;SDS011;42227;6.376;-10.782;2023-11-22T13:32:05;27.40;;;12.80;;
56321;SDS011;42227;6.376;-10.782;2023-11-22T13:34:34;27.20;;;11.55;;
56321;SDS011;42227;6.376;-10.782;2023-11-22T13:37:02;29.60;;;10.13;;
56321;SDS011;42227;6.376;-10.782;2023-11-22T13:39:31;24.55;;;9.98;;
56321;SDS011;42227;6.376;-10.782;2023-11-22T13:41:59;25.63;;;8.85;;
56321;SDS011;42227;6.376;-10.782;2023-11-22T13:44:27;26.60;;;11.02;;
56321;SDS011;42227;6.376;-10.782;2023-11-22T13:46:56;23.05;;;10.77;;
56321;SDS011;42227;6.376;-10.782;2023-11-22T13:49:25;30.52;;;10.02;;
56321;SDS011;42227;6.376;-10.782;2023-11-22T13:51:53;27.00;;;14.10;;
56321;SDS011;42227;6.376;-10.782;2023-11-22T13:54:21;41.22;;;14.82;;
56321;SDS011;42227;6.376;-10.782;2023-11-22T13:56:50;26.30;;;13.98;;
56321;SDS011;42227;6.376;-10.782;2023-11-22T13:59:19;32.75;;;10.52;;
56321;SDS011;42227;6.376;-10.782;2023-11-22T14:01:47;26.52;;;8.90;;
56321;SDS011;42227;6.376;-10.782;2023-11-22T14:04:19;21.63;;;9.40;;
56321;SDS011;42227;6.376;-10.782;2023-11-22T14:06:48;20.65;;;8.60;;
56321;SDS011;42227;6.376;-10.782;2023-11-22T14:09:16;47.03;;;15.40;;
56321;SDS011;42227;6.376;-10.782;2023-11-22T14:11:45;30.42;;;14.00;;
56321;SDS011;42227;6.376;-10.782;2023-11-22T14:14:13;29.50;;;14.38;;
56321;SDS011;42227;6.376;-10.782;2023-11-22T14:16:43;18.45;;;8.18;;
56321;SDS011;42227;6.376;-10.782;2023-11-22T14:19:12;23.08;;;8.63;;
56321;SDS011;42227;6.376;-10.782;2023-11-22T14:21:40;24.40;;;10.48;;
56321;SDS011;42227;6.376;-10.782;2023-11-22T14:24:09;32.30;;;15.73;;
56321;SDS011;42227;6.376;-10.782;2023-11-22T14:26:38;41.60;;;16.58;;
56321;SDS011;42227;6.376;-10.782;2023-11-22T14:29:06;30.20;;;14.45;;